sensor_id;sensor_type;location;lat;lon;timestamp;P1;durP1;ratioP1;P2;durP2;ratioP2
52184;SDS011;38160;52.876;18.778;2022-10-18T00:00:39;32.55;;;22.93;;
52184;SDS011;38160;52.876;18.778;2022-10-18T00:03:12;32.13;;;21.77;;
52184;SDS011;38160;52.876;18.778;2022-10-18T00:05:46;35.20;;;22.35;;
52184;SDS011;38160;52.876;18.778;2022-10-18T00:08:20;31.80;;;20.85;;
52184;SDS011;38160;52.876;18.778;2022-10-18T00:10:53;31.48;;;22.17;;
52184;SDS011;38160;52.876;18.778;2022-10-18T00:13:25;36.03;;;23.40;;
52184;SDS011;38160;52.876;18.778;2022-10-18T00:15:57;37.38;;;22.13;;
52184;SDS011;38160;52.876;18.778;2022-10-18T00:18:31;29.25;;;22.35;;
52184;SDS011;38160;52.876;18.778;2022-10-18T00:21:11;31.85;;;21.12;;
52184;SDS011;38160;52.876;18.778;2022-10-18T00:23:44;34.10;;;23.20;;
52184;SDS011;38160;52.876;18.778;2022-10-18T00:26:18;32.90;;;22.62;;
52184;SDS011;38160;52.876;18.778;2022-10-18T00:28:57;40.55;;;22.07;;
52184;SDS011;38160;52.876;18.778;2022-10-18T00:31:35;32.33;;;21.23;;
52184;SDS011;38160;52.876;18.778;2022-10-18T00:34:12;30.35;;;20.95;;
52184;SDS011;38160;52.876;18.778;2022-10-18T00:36:45;32.30;;;19.75;;
52184;SDS011;38160;52.876;18.778;2022-10-18T00:39:18;28.60;;;20.35;;
52184;SDS011;38160;52.876;18.778;2022-10-18T00:41:51;33.92;;;21.23;;
52184;SDS011;38160;52.876;18.778;2022-10-18T00:47:01;31.62;;;19.57;;
52184;SDS011;38160;52.876;18.778;2022-10-18T00:49:41;31.85;;;19.80;;
52184;SDS011;38160;52.876;18.778;2022-10-18T00:54:59;31.50;;;21.80;;
52184;SDS011;38160;52.876;18.778;2022-10-18T00:57:32;29.80;;;20.15;;
52184;SDS011;38160;52.876;18.778;2022-10-18T01:00:04;32.03;;;19.32;;
52184;SDS011;38160;52.876;18.778;2022-10-18T01:02:41;28.70;;;21.50;;
52184;SDS011;38160;52.876;18.778;2022-10-18T01:05:18;32.65;;;22.00;;
52184;SDS011;38160;52.876;18.778;2022-10-18T01:11:22;31.65;;;22.48;;
52184;SDS011;38160;52.876;18.778;2022-10-18T01:14:13;30.40;;;21.05;;
52184;SDS011;38160;52.876;18.778;2022-10-18T01:17:20;28.77;;;20.62;;
52184;SDS011;38160;52.876;18.778;2022-10-18T01:23:24;38.10;;;22.52;;
52184;SDS011;38160;52.876;18.778;2022-10-18T01:31:52;32.40;;;22.20;;
52184;SDS011;38160;52.876;18.778;2022-10-18T01:34:29;37.65;;;25.37;;
52184;SDS011;38160;52.876;18.778;2022-10-18T01:37:05;31.87;;;22.75;;
52184;SDS011;38160;52.876;18.778;2022-10-18T01:39:40;33.40;;;23.32;;
52184;SDS011;38160;52.876;18.778;2022-10-18T01:42:16;35.35;;;24.10;;
52184;SDS011;38160;52.876;18.778;2022-10-18T01:47:23;32.25;;;22.10;;
52184;SDS011;38160;52.876;18.778;2022-10-18T01:49:58;35.73;;;21.80;;
52184;SDS011;38160;52.876;18.778;2022-10-18T01:52:32;29.32;;;20.77;;
52184;SDS011;38160;52.876;18.778;2022-10-18T01:55:06;30.50;;;21.62;;
52184;SDS011;38160;52.876;18.778;2022-10-18T01:57:40;32.60;;;21.97;;
52184;SDS011;38160;52.876;18.778;2022-10-18T02:00:33;30.55;;;20.40;;
52184;SDS011;38160;52.876;18.778;2022-10-18T02:06:03;32.73;;;22.75;;
52184;SDS011;38160;52.876;18.778;2022-10-18T02:08:54;36.95;;;23.25;;
52184;SDS011;38160;52.876;18.778;2022-10-18T02:11:36;38.05;;;23.90;;
52184;SDS011;38160;52.876;18.778;2022-10-18T02:14:11;36.03;;;23.87;;
52184;SDS011;38160;52.876;18.778;2022-10-18T02:16:46;37.58;;;24.00;;
52184;SDS011;38160;52.876;18.778;2022-10-18T02:19:27;34.33;;;22.82;;
52184;SDS011;38160;52.876;18.778;2022-10-18T02:22:05;40.63;;;23.27;;
52184;SDS011;38160;52.876;18.778;2022-10-18T02:24:42;32.03;;;21.75;;
52184;SDS011;38160;52.876;18.778;2022-10-18T02:27:17;33.45;;;22.05;;
52184;SDS011;38160;52.876;18.778;2022-10-18T02:29:51;34.08;;;21.30;;
52184;SDS011;38160;52.876;18.778;2022-10-18T02:32:59;34.63;;;21.40;;
52184;SDS011;38160;52.876;18.778;2022-10-18T02:35:20;33.13;;;23.35;;
52184;SDS011;38160;52.876;18.778;2022-10-18T02:37:59;39.78;;;22.22;;
52184;SDS011;38160;52.876;18.778;2022-10-18T02:40:32;32.83;;;21.70;;
52184;SDS011;38160;52.876;18.778;2022-10-18T02:43:04;30.12;;;21.12;;
52184;SDS011;38160;52.876;18.778;2022-10-18T02:45:37;31.93;;;21.10;;
52184;SDS011;38160;52.876;18.778;2022-10-18T02:48:08;43.02;;;24.43;;
52184;SDS011;38160;52.876;18.778;2022-10-18T02:50:40;37.90;;;21.50;;
52184;SDS011;38160;52.876;18.778;2022-10-18T02:53:12;39.98;;;24.75;;
52184;SDS011;38160;52.876;18.778;2022-10-18T02:55:44;41.95;;;27.02;;
52184;SDS011;38160;52.876;18.778;2022-10-18T02:58:16;39.58;;;25.75;;
52184;SDS011;38160;52.876;18.778;2022-10-18T03:00:52;39.42;;;27.77;;
52184;SDS011;38160;52.876;18.778;2022-10-18T03:03:21;38.00;;;27.15;;
52184;SDS011;38160;52.876;18.778;2022-10-18T03:05:52;39.73;;;27.82;;
52184;SDS011;38160;52.876;18.778;2022-10-18T03:08:24;39.05;;;27.32;;
52184;SDS011;38160;52.876;18.778;2022-10-18T03:10:56;40.38;;;27.62;;
52184;SDS011;38160;52.876;18.778;2022-10-18T03:13:27;38.35;;;25.57;;
52184;SDS011;38160;52.876;18.778;2022-10-18T03:15:59;35.10;;;24.32;;
52184;SDS011;38160;52.876;18.778;2022-10-18T03:18:31;43.15;;;25.70;;
52184;SDS011;38160;52.876;18.778;2022-10-18T03:21:04;35.60;;;23.35;;
52184;SDS011;38160;52.876;18.778;2022-10-18T03:23:36;36.48;;;23.02;;
52184;SDS011;38160;52.876;18.778;2022-10-18T03:26:08;36.10;;;24.77;;
52184;SDS011;38160;52.876;18.778;2022-10-18T03:28:40;37.03;;;26.17;;
52184;SDS011;38160;52.876;18.778;2022-10-18T03:31:12;34.30;;;24.05;;
52184;SDS011;38160;52.876;18.778;2022-10-18T03:33:43;40.25;;;26.23;;
52184;SDS011;38160;52.876;18.778;2022-10-18T03:36:16;39.08;;;26.85;;
52184;SDS011;38160;52.876;18.778;2022-10-18T03:38:47;40.28;;;27.62;;
52184;SDS011;38160;52.876;18.778;2022-10-18T03:41:19;39.08;;;25.97;;
52184;SDS011;38160;52.876;18.778;2022-10-18T03:43:51;33.83;;;24.75;;
52184;SDS011;38160;52.876;18.778;2022-10-18T03:46:23;39.40;;;25.95;;
52184;SDS011;38160;52.876;18.778;2022-10-18T03:48:54;35.08;;;24.82;;
52184;SDS011;38160;52.876;18.778;2022-10-18T03:51:26;39.03;;;24.77;;
52184;SDS011;38160;52.876;18.778;2022-10-18T03:53:58;37.60;;;26.25;;
52184;SDS011;38160;52.876;18.778;2022-10-18T03:56:30;33.50;;;24.27;;
52184;SDS011;38160;52.876;18.778;2022-10-18T03:59:02;36.80;;;24.77;;
52184;SDS011;38160;52.876;18.778;2022-10-18T04:01:34;43.52;;;27.77;;
52184;SDS011;38160;52.876;18.778;2022-10-18T04:04:06;40.25;;;26.33;;
52184;SDS011;38160;52.876;18.778;2022-10-18T04:06:37;41.60;;;29.05;;
52184;SDS011;38160;52.876;18.778;2022-10-18T04:09:09;35.25;;;25.10;;
52184;SDS011;38160;52.876;18.778;2022-10-18T04:11:42;36.77;;;25.20;;
52184;SDS011;38160;52.876;18.778;2022-10-18T04:14:14;39.75;;;26.62;;
52184;SDS011;38160;52.876;18.778;2022-10-18T04:20:49;41.02;;;26.37;;
52184;SDS011;38160;52.876;18.778;2022-10-18T04:26:25;42.10;;;24.45;;
52184;SDS011;38160;52.876;18.778;2022-10-18T04:29:22;36.77;;;23.45;;
52184;SDS011;38160;52.876;18.778;2022-10-18T04:31:55;37.05;;;24.95;;
52184;SDS011;38160;52.876;18.778;2022-10-18T04:34:27;39.80;;;25.02;;
52184;SDS011;38160;52.876;18.778;2022-10-18T04:36:59;41.05;;;26.20;;
52184;SDS011;38160;52.876;18.778;2022-10-18T04:39:31;39.33;;;26.85;;
52184;SDS011;38160;52.876;18.778;2022-10-18T04:42:02;36.28;;;24.98;;
52184;SDS011;38160;52.876;18.778;2022-10-18T04:44:34;38.17;;;25.10;;
52184;SDS011;38160;52.876;18.778;2022-10-18T04:47:06;41.40;;;24.55;;
52184;SDS011;38160;52.876;18.778;2022-10-18T04:49:37;40.17;;;25.12;;
52184;SDS011;38160;52.876;18.778;2022-10-18T04:52:09;33.00;;;23.45;;
52184;SDS011;38160;52.876;18.778;2022-10-18T04:54:41;39.03;;;25.88;;
52184;SDS011;38160;52.876;18.778;2022-10-18T04:57:13;36.98;;;26.33;;
52184;SDS011;38160;52.876;18.778;2022-10-18T04:59:44;41.92;;;27.00;;
52184;SDS011;38160;52.876;18.778;2022-10-18T05:02:16;36.45;;;26.55;;
52184;SDS011;38160;52.876;18.778;2022-10-18T05:04:48;41.15;;;27.02;;
52184;SDS011;38160;52.876;18.778;2022-10-18T05:07:21;35.43;;;24.70;;
52184;SDS011;38160;52.876;18.778;2022-10-18T05:09:53;36.30;;;25.08;;
52184;SDS011;38160;52.876;18.778;2022-10-18T05:12:37;34.92;;;25.02;;
52184;SDS011;38160;52.876;18.778;2022-10-18T05:15:09;45.08;;;27.30;;
52184;SDS011;38160;52.876;18.778;2022-10-18T05:17:40;42.35;;;27.93;;
52184;SDS011;38160;52.876;18.778;2022-10-18T05:20:12;38.23;;;26.27;;
52184;SDS011;38160;52.876;18.778;2022-10-18T05:22:44;43.02;;;28.38;;
52184;SDS011;38160;52.876;18.778;2022-10-18T05:25:15;40.58;;;27.62;;
52184;SDS011;38160;52.876;18.778;2022-10-18T05:31:03;41.45;;;24.95;;
52184;SDS011;38160;52.876;18.778;2022-10-18T05:33:52;40.63;;;27.02;;
52184;SDS011;38160;52.876;18.778;2022-10-18T05:37:31;40.92;;;27.75;;
52184;SDS011;38160;52.876;18.778;2022-10-18T05:40:03;40.28;;;27.00;;
52184;SDS011;38160;52.876;18.778;2022-10-18T05:42:35;37.55;;;26.50;;
52184;SDS011;38160;52.876;18.778;2022-10-18T05:45:07;40.98;;;26.82;;
52184;SDS011;38160;52.876;18.778;2022-10-18T05:47:39;40.25;;;26.07;;
52184;SDS011;38160;52.876;18.778;2022-10-18T05:50:11;41.58;;;26.85;;
52184;SDS011;38160;52.876;18.778;2022-10-18T05:52:42;43.08;;;28.55;;
52184;SDS011;38160;52.876;18.778;2022-10-18T05:55:14;40.60;;;28.17;;
52184;SDS011;38160;52.876;18.778;2022-10-18T05:57:48;50.63;;;29.35;;
52184;SDS011;38160;52.876;18.778;2022-10-18T06:00:20;44.03;;;29.10;;
52184;SDS011;38160;52.876;18.778;2022-10-18T06:02:52;41.77;;;28.23;;
52184;SDS011;38160;52.876;18.778;2022-10-18T06:05:23;39.45;;;27.13;;
52184;SDS011;38160;52.876;18.778;2022-10-18T06:07:55;43.08;;;29.05;;
52184;SDS011;38160;52.876;18.778;2022-10-18T06:10:27;45.45;;;29.15;;
52184;SDS011;38160;52.876;18.778;2022-10-18T06:13:03;46.95;;;28.83;;
52184;SDS011;38160;52.876;18.778;2022-10-18T06:15:35;141.22;;;37.03;;
52184;SDS011;38160;52.876;18.778;2022-10-18T06:18:07;99.32;;;35.25;;
52184;SDS011;38160;52.876;18.778;2022-10-18T06:23:18;124.33;;;33.02;;
52184;SDS011;38160;52.876;18.778;2022-10-18T06:25:56;182.95;;;36.63;;
52184;SDS011;38160;52.876;18.778;2022-10-18T06:28:33;131.90;;;36.55;;
52184;SDS011;38160;52.876;18.778;2022-10-18T06:31:07;59.35;;;30.20;;
52184;SDS011;38160;52.876;18.778;2022-10-18T06:33:41;47.40;;;31.50;;
52184;SDS011;38160;52.876;18.778;2022-10-18T06:36:13;62.60;;;32.33;;
52184;SDS011;38160;52.876;18.778;2022-10-18T06:38:48;48.17;;;31.57;;
52184;SDS011;38160;52.876;18.778;2022-10-18T06:41:21;131.65;;;35.38;;
52184;SDS011;38160;52.876;18.778;2022-10-18T06:43:53;68.90;;;31.73;;
52184;SDS011;38160;52.876;18.778;2022-10-18T06:46:28;69.60;;;31.23;;
52184;SDS011;38160;52.876;18.778;2022-10-18T06:49:01;51.30;;;30.92;;
52184;SDS011;38160;52.876;18.778;2022-10-18T06:51:33;50.90;;;29.80;;
52184;SDS011;38160;52.876;18.778;2022-10-18T06:54:05;44.50;;;29.52;;
52184;SDS011;38160;52.876;18.778;2022-10-18T06:56:37;44.73;;;30.35;;
52184;SDS011;38160;52.876;18.778;2022-10-18T06:59:10;58.17;;;29.65;;
52184;SDS011;38160;52.876;18.778;2022-10-18T07:01:42;82.27;;;31.82;;
52184;SDS011;38160;52.876;18.778;2022-10-18T07:04:14;53.40;;;31.87;;
52184;SDS011;38160;52.876;18.778;2022-10-18T07:06:45;71.53;;;30.68;;
52184;SDS011;38160;52.876;18.778;2022-10-18T07:09:17;51.98;;;32.15;;
52184;SDS011;38160;52.876;18.778;2022-10-18T07:11:49;62.13;;;31.97;;
52184;SDS011;38160;52.876;18.778;2022-10-18T07:14:22;43.17;;;32.10;;
52184;SDS011;38160;52.876;18.778;2022-10-18T07:16:54;70.45;;;34.88;;
52184;SDS011;38160;52.876;18.778;2022-10-18T07:19:39;46.37;;;31.93;;
52184;SDS011;38160;52.876;18.778;2022-10-18T07:25:46;67.67;;;33.02;;
52184;SDS011;38160;52.876;18.778;2022-10-18T07:28:18;49.03;;;32.73;;
52184;SDS011;38160;52.876;18.778;2022-10-18T07:30:49;58.25;;;32.80;;
52184;SDS011;38160;52.876;18.778;2022-10-18T07:33:21;82.92;;;34.03;;
52184;SDS011;38160;52.876;18.778;2022-10-18T07:35:54;76.17;;;35.38;;
52184;SDS011;38160;52.876;18.778;2022-10-18T07:38:28;51.48;;;32.70;;
52184;SDS011;38160;52.876;18.778;2022-10-18T07:41:06;61.48;;;32.08;;
52184;SDS011;38160;52.876;18.778;2022-10-18T07:43:41;42.50;;;29.45;;
52184;SDS011;38160;52.876;18.778;2022-10-18T07:46:21;50.88;;;30.30;;
52184;SDS011;38160;52.876;18.778;2022-10-18T07:49:20;59.42;;;29.40;;
52184;SDS011;38160;52.876;18.778;2022-10-18T07:51:47;47.45;;;29.20;;
52184;SDS011;38160;52.876;18.778;2022-10-18T07:54:19;44.45;;;28.57;;
52184;SDS011;38160;52.876;18.778;2022-10-18T07:56:52;52.25;;;30.12;;
52184;SDS011;38160;52.876;18.778;2022-10-18T07:59:23;47.60;;;29.05;;
52184;SDS011;38160;52.876;18.778;2022-10-18T08:01:55;47.15;;;29.85;;
52184;SDS011;38160;52.876;18.778;2022-10-18T08:04:27;46.25;;;30.00;;
52184;SDS011;38160;52.876;18.778;2022-10-18T08:06:59;63.45;;;30.55;;
52184;SDS011;38160;52.876;18.778;2022-10-18T08:09:30;41.25;;;29.40;;
52184;SDS011;38160;52.876;18.778;2022-10-18T08:12:04;42.53;;;28.85;;
52184;SDS011;38160;52.876;18.778;2022-10-18T08:14:38;47.50;;;30.45;;
52184;SDS011;38160;52.876;18.778;2022-10-18T08:17:12;86.40;;;31.23;;
52184;SDS011;38160;52.876;18.778;2022-10-18T08:19:43;41.95;;;30.57;;
52184;SDS011;38160;52.876;18.778;2022-10-18T08:22:15;56.68;;;30.60;;
52184;SDS011;38160;52.876;18.778;2022-10-18T08:24:47;57.80;;;32.33;;
52184;SDS011;38160;52.876;18.778;2022-10-18T08:27:20;45.85;;;31.45;;
52184;SDS011;38160;52.876;18.778;2022-10-18T08:29:52;47.62;;;31.30;;
52184;SDS011;38160;52.876;18.778;2022-10-18T08:32:24;43.13;;;30.45;;
52184;SDS011;38160;52.876;18.778;2022-10-18T08:34:57;49.42;;;30.43;;
52184;SDS011;38160;52.876;18.778;2022-10-18T08:37:32;47.10;;;30.95;;
52184;SDS011;38160;52.876;18.778;2022-10-18T08:40:06;45.23;;;31.37;;
52184;SDS011;38160;52.876;18.778;2022-10-18T08:45:43;49.60;;;29.67;;
52184;SDS011;38160;52.876;18.778;2022-10-18T08:48:34;60.73;;;31.30;;
52184;SDS011;38160;52.876;18.778;2022-10-18T08:51:22;42.15;;;29.80;;
52184;SDS011;38160;52.876;18.778;2022-10-18T08:53:57;43.23;;;30.32;;
52184;SDS011;38160;52.876;18.778;2022-10-18T08:56:45;46.02;;;29.77;;
52184;SDS011;38160;52.876;18.778;2022-10-18T08:59:21;46.45;;;30.40;;
52184;SDS011;38160;52.876;18.778;2022-10-18T09:17:08;52.78;;;29.72;;
52184;SDS011;38160;52.876;18.778;2022-10-18T09:23:19;44.48;;;31.80;;
52184;SDS011;38160;52.876;18.778;2022-10-18T09:26:09;46.48;;;31.05;;
52184;SDS011;38160;52.876;18.778;2022-10-18T09:29:08;53.70;;;29.55;;
52184;SDS011;38160;52.876;18.778;2022-10-18T09:35:10;44.85;;;31.00;;
52184;SDS011;38160;52.876;18.778;2022-10-18T09:38:00;49.27;;;31.75;;
52184;SDS011;38160;52.876;18.778;2022-10-18T09:40:37;56.02;;;31.50;;
52184;SDS011;38160;52.876;18.778;2022-10-18T09:43:16;47.45;;;31.48;;
52184;SDS011;38160;52.876;18.778;2022-10-18T09:45:56;53.17;;;32.13;;
52184;SDS011;38160;52.876;18.778;2022-10-18T09:48:40;45.40;;;30.92;;
52184;SDS011;38160;52.876;18.778;2022-10-18T09:51:23;45.67;;;30.37;;
52184;SDS011;38160;52.876;18.778;2022-10-18T09:54:02;44.45;;;30.95;;
52184;SDS011;38160;52.876;18.778;2022-10-18T09:56:40;56.08;;;30.65;;
52184;SDS011;38160;52.876;18.778;2022-10-18T10:02:21;48.25;;;30.52;;
52184;SDS011;38160;52.876;18.778;2022-10-18T10:04:57;50.08;;;32.15;;
52184;SDS011;38160;52.876;18.778;2022-10-18T10:07:32;62.50;;;32.17;;
52184;SDS011;38160;52.876;18.778;2022-10-18T10:15:57;47.50;;;33.98;;
52184;SDS011;38160;52.876;18.778;2022-10-18T10:18:35;56.13;;;34.83;;
52184;SDS011;38160;52.876;18.778;2022-10-18T10:21:14;57.08;;;34.43;;
52184;SDS011;38160;52.876;18.778;2022-10-18T10:23:50;50.70;;;33.58;;
52184;SDS011;38160;52.876;18.778;2022-10-18T10:32:21;53.78;;;32.83;;
52184;SDS011;38160;52.876;18.778;2022-10-18T10:39:22;46.55;;;32.10;;
52184;SDS011;38160;52.876;18.778;2022-10-18T10:41:49;54.85;;;34.53;;
52184;SDS011;38160;52.876;18.778;2022-10-18T10:44:24;47.53;;;35.38;;
52184;SDS011;38160;52.876;18.778;2022-10-18T10:47:02;53.15;;;35.92;;
52184;SDS011;38160;52.876;18.778;2022-10-18T10:52:19;55.45;;;33.10;;
52184;SDS011;38160;52.876;18.778;2022-10-18T10:54:54;58.42;;;33.58;;
52184;SDS011;38160;52.876;18.778;2022-10-18T11:00:39;52.40;;;32.30;;
52184;SDS011;38160;52.876;18.778;2022-10-18T11:03:17;52.53;;;32.55;;
52184;SDS011;38160;52.876;18.778;2022-10-18T11:05:53;52.95;;;32.53;;
52184;SDS011;38160;52.876;18.778;2022-10-18T11:08:26;46.13;;;32.55;;
52184;SDS011;38160;52.876;18.778;2022-10-18T11:11:15;44.58;;;30.43;;
52184;SDS011;38160;52.876;18.778;2022-10-18T11:16:57;48.45;;;32.60;;
52184;SDS011;38160;52.876;18.778;2022-10-18T11:20:08;47.45;;;32.05;;
52184;SDS011;38160;52.876;18.778;2022-10-18T11:28:48;50.28;;;31.68;;
52184;SDS011;38160;52.876;18.778;2022-10-18T11:31:56;44.88;;;33.67;;
52184;SDS011;38160;52.876;18.778;2022-10-18T11:40:31;52.88;;;34.10;;
52184;SDS011;38160;52.876;18.778;2022-10-18T11:43:15;49.55;;;33.25;;
52184;SDS011;38160;52.876;18.778;2022-10-18T11:46:12;84.13;;;34.92;;
52184;SDS011;38160;52.876;18.778;2022-10-18T11:57:52;48.70;;;36.03;;
52184;SDS011;38160;52.876;18.778;2022-10-18T12:00:42;48.33;;;33.67;;
52184;SDS011;38160;52.876;18.778;2022-10-18T12:03:37;55.90;;;34.20;;
52184;SDS011;38160;52.876;18.778;2022-10-18T12:06:18;52.73;;;36.20;;
52184;SDS011;38160;52.876;18.778;2022-10-18T12:09:02;51.50;;;36.65;;
52184;SDS011;38160;52.876;18.778;2022-10-18T12:11:42;50.38;;;35.65;;
52184;SDS011;38160;52.876;18.778;2022-10-18T12:14:31;49.95;;;35.80;;
52184;SDS011;38160;52.876;18.778;2022-10-18T12:17:17;49.38;;;36.63;;
52184;SDS011;38160;52.876;18.778;2022-10-18T12:20:11;56.55;;;35.20;;
52184;SDS011;38160;52.876;18.778;2022-10-18T12:22:58;48.78;;;34.70;;
52184;SDS011;38160;52.876;18.778;2022-10-18T12:25:34;59.60;;;35.92;;
52184;SDS011;38160;52.876;18.778;2022-10-18T12:37:07;96.25;;;37.70;;
52184;SDS011;38160;52.876;18.778;2022-10-18T12:40:14;59.58;;;35.90;;
52184;SDS011;38160;52.876;18.778;2022-10-18T12:43:07;52.33;;;33.53;;
52184;SDS011;38160;52.876;18.778;2022-10-18T12:45:53;48.90;;;35.50;;
52184;SDS011;38160;52.876;18.778;2022-10-18T12:56:41;39.27;;;26.68;;
52184;SDS011;38160;52.876;18.778;2022-10-18T13:12:59;38.90;;;25.77;;
52184;SDS011;38160;52.876;18.778;2022-10-18T13:15:36;40.17;;;25.90;;
52184;SDS011;38160;52.876;18.778;2022-10-18T13:18:17;35.78;;;24.63;;
52184;SDS011;38160;52.876;18.778;2022-10-18T13:27:18;29.63;;;20.02;;
52184;SDS011;38160;52.876;18.778;2022-10-18T13:33:38;28.10;;;15.83;;
52184;SDS011;38160;52.876;18.778;2022-10-18T13:36:56;30.30;;;15.88;;
52184;SDS011;38160;52.876;18.778;2022-10-18T13:39:14;20.75;;;14.20;;
52184;SDS011;38160;52.876;18.778;2022-10-18T13:47:10;26.40;;;16.07;;
52184;SDS011;38160;52.876;18.778;2022-10-18T13:49:52;26.80;;;14.78;;
52184;SDS011;38160;52.876;18.778;2022-10-18T13:58:31;15.83;;;9.28;;
52184;SDS011;38160;52.876;18.778;2022-10-18T14:04:46;89.28;;;51.88;;
52184;SDS011;38160;52.876;18.778;2022-10-18T14:07:17;51.90;;;33.05;;
52184;SDS011;38160;52.876;18.778;2022-10-18T14:09:52;43.65;;;26.57;;
52184;SDS011;38160;52.876;18.778;2022-10-18T14:12:43;22.98;;;11.57;;
52184;SDS011;38160;52.876;18.778;2022-10-18T14:15:17;125.45;;;18.20;;
52184;SDS011;38160;52.876;18.778;2022-10-18T14:21:15;16.27;;;10.70;;
52184;SDS011;38160;52.876;18.778;2022-10-18T14:23:51;19.50;;;9.60;;
52184;SDS011;38160;52.876;18.778;2022-10-18T14:33:21;24.45;;;13.05;;
52184;SDS011;38160;52.876;18.778;2022-10-18T14:39:56;24.57;;;13.78;;
52184;SDS011;38160;52.876;18.778;2022-10-18T14:56:18;23.18;;;15.78;;
52184;SDS011;38160;52.876;18.778;2022-10-18T14:59:25;24.72;;;18.73;;
52184;SDS011;38160;52.876;18.778;2022-10-18T15:02:15;19.45;;;12.82;;
52184;SDS011;38160;52.876;18.778;2022-10-18T15:07:42;21.20;;;13.28;;
52184;SDS011;38160;52.876;18.778;2022-10-18T15:10:16;20.65;;;13.00;;
52184;SDS011;38160;52.876;18.778;2022-10-18T15:12:57;22.35;;;12.90;;
52184;SDS011;38160;52.876;18.778;2022-10-18T15:18:21;22.42;;;14.30;;
52184;SDS011;38160;52.876;18.778;2022-10-18T15:21:05;29.90;;;15.10;;
52184;SDS011;38160;52.876;18.778;2022-10-18T15:23:54;30.30;;;14.25;;
52184;SDS011;38160;52.876;18.778;2022-10-18T15:26:46;19.40;;;12.43;;
52184;SDS011;38160;52.876;18.778;2022-10-18T15:29:18;18.98;;;11.95;;
52184;SDS011;38160;52.876;18.778;2022-10-18T15:31:54;18.60;;;11.90;;
52184;SDS011;38160;52.876;18.778;2022-10-18T15:58:18;26.73;;;14.47;;
52184;SDS011;38160;52.876;18.778;2022-10-18T16:01:01;25.10;;;13.55;;
52184;SDS011;38160;52.876;18.778;2022-10-18T16:03:34;25.97;;;14.10;;
52184;SDS011;38160;52.876;18.778;2022-10-18T16:06:10;21.65;;;13.88;;
52184;SDS011;38160;52.876;18.778;2022-10-18T16:11:54;23.83;;;14.98;;
52184;SDS011;38160;52.876;18.778;2022-10-18T16:14:28;23.27;;;15.70;;
52184;SDS011;38160;52.876;18.778;2022-10-18T16:17:04;22.10;;;15.88;;
52184;SDS011;38160;52.876;18.778;2022-10-18T16:19:37;24.25;;;17.52;;
52184;SDS011;38160;52.876;18.778;2022-10-18T16:22:10;20.85;;;15.45;;
52184;SDS011;38160;52.876;18.778;2022-10-18T16:30:34;18.90;;;13.38;;
52184;SDS011;38160;52.876;18.778;2022-10-18T16:33:06;26.73;;;16.07;;
52184;SDS011;38160;52.876;18.778;2022-10-18T16:35:38;20.37;;;13.80;;
52184;SDS011;38160;52.876;18.778;2022-10-18T16:38:18;19.40;;;13.20;;
52184;SDS011;38160;52.876;18.778;2022-10-18T16:41:03;20.25;;;12.85;;
52184;SDS011;38160;52.876;18.778;2022-10-18T16:43:36;19.00;;;13.05;;
52184;SDS011;38160;52.876;18.778;2022-10-18T16:46:10;23.15;;;13.90;;
52184;SDS011;38160;52.876;18.778;2022-10-18T16:48:48;18.10;;;11.93;;
52184;SDS011;38160;52.876;18.778;2022-10-18T16:51:21;20.10;;;12.85;;
52184;SDS011;38160;52.876;18.778;2022-10-18T16:53:53;17.52;;;11.63;;
52184;SDS011;38160;52.876;18.778;2022-10-18T16:56:29;19.02;;;12.18;;
52184;SDS011;38160;52.876;18.778;2022-10-18T16:59:02;19.50;;;12.95;;
52184;SDS011;38160;52.876;18.778;2022-10-18T17:01:34;20.17;;;12.73;;
52184;SDS011;38160;52.876;18.778;2022-10-18T17:04:05;19.10;;;11.10;;
52184;SDS011;38160;52.876;18.778;2022-10-18T17:06:37;17.10;;;11.48;;
52184;SDS011;38160;52.876;18.778;2022-10-18T17:09:09;15.93;;;11.30;;
52184;SDS011;38160;52.876;18.778;2022-10-18T17:11:44;17.42;;;11.15;;
52184;SDS011;38160;52.876;18.778;2022-10-18T17:14:15;17.23;;;11.00;;
52184;SDS011;38160;52.876;18.778;2022-10-18T17:16:47;18.55;;;12.35;;
52184;SDS011;38160;52.876;18.778;2022-10-18T17:19:19;17.27;;;11.60;;
52184;SDS011;38160;52.876;18.778;2022-10-18T17:21:51;17.75;;;11.95;;
52184;SDS011;38160;52.876;18.778;2022-10-18T17:24:23;17.82;;;12.00;;
52184;SDS011;38160;52.876;18.778;2022-10-18T17:26:55;21.12;;;12.37;;
52184;SDS011;38160;52.876;18.778;2022-10-18T17:29:26;25.27;;;14.55;;
52184;SDS011;38160;52.876;18.778;2022-10-18T17:31:58;18.90;;;13.50;;
52184;SDS011;38160;52.876;18.778;2022-10-18T17:34:30;19.98;;;13.10;;
52184;SDS011;38160;52.876;18.778;2022-10-18T17:37:02;20.32;;;13.20;;
52184;SDS011;38160;52.876;18.778;2022-10-18T17:39:35;18.02;;;12.23;;
52184;SDS011;38160;52.876;18.778;2022-10-18T17:42:06;17.42;;;11.50;;
52184;SDS011;38160;52.876;18.778;2022-10-18T17:44:38;17.15;;;12.40;;
52184;SDS011;38160;52.876;18.778;2022-10-18T17:47:10;19.55;;;12.20;;
52184;SDS011;38160;52.876;18.778;2022-10-18T17:49:52;17.62;;;11.68;;
52184;SDS011;38160;52.876;18.778;2022-10-18T17:52:24;18.07;;;11.95;;
52184;SDS011;38160;52.876;18.778;2022-10-18T17:54:56;20.20;;;13.48;;
52184;SDS011;38160;52.876;18.778;2022-10-18T17:57:27;17.50;;;12.03;;
52184;SDS011;38160;52.876;18.778;2022-10-18T17:59:59;20.95;;;13.32;;
52184;SDS011;38160;52.876;18.778;2022-10-18T18:02:32;20.27;;;13.72;;
52184;SDS011;38160;52.876;18.778;2022-10-18T18:05:05;22.13;;;15.48;;
52184;SDS011;38160;52.876;18.778;2022-10-18T18:07:37;28.57;;;17.20;;
52184;SDS011;38160;52.876;18.778;2022-10-18T18:10:09;24.82;;;17.35;;
52184;SDS011;38160;52.876;18.778;2022-10-18T18:12:47;29.32;;;18.75;;
52184;SDS011;38160;52.876;18.778;2022-10-18T18:15:16;24.87;;;17.90;;
52184;SDS011;38160;52.876;18.778;2022-10-18T18:17:48;27.22;;;18.42;;
52184;SDS011;38160;52.876;18.778;2022-10-18T18:20:28;28.32;;;19.80;;
52184;SDS011;38160;52.876;18.778;2022-10-18T18:23:02;25.23;;;18.50;;
52184;SDS011;38160;52.876;18.778;2022-10-18T18:25:35;28.83;;;19.25;;
52184;SDS011;38160;52.876;18.778;2022-10-18T18:28:19;28.20;;;19.90;;
52184;SDS011;38160;52.876;18.778;2022-10-18T18:34:18;32.25;;;20.32;;
52184;SDS011;38160;52.876;18.778;2022-10-18T18:36:53;27.55;;;19.00;;
52184;SDS011;38160;52.876;18.778;2022-10-18T18:39:32;30.95;;;18.57;;
52184;SDS011;38160;52.876;18.778;2022-10-18T18:42:07;31.80;;;19.27;;
52184;SDS011;38160;52.876;18.778;2022-10-18T18:55:30;27.17;;;19.23;;
52184;SDS011;38160;52.876;18.778;2022-10-18T19:06:16;28.02;;;17.92;;
52184;SDS011;38160;52.876;18.778;2022-10-18T19:08:52;29.27;;;18.02;;
52184;SDS011;38160;52.876;18.778;2022-10-18T19:11:33;27.95;;;17.98;;
52184;SDS011;38160;52.876;18.778;2022-10-18T19:14:05;24.27;;;16.90;;
52184;SDS011;38160;52.876;18.778;2022-10-18T19:16:55;21.77;;;16.02;;
52184;SDS011;38160;52.876;18.778;2022-10-18T19:19:28;23.52;;;16.73;;